sensor_id;sensor_type;location;lat;lon;timestamp;temperature;humidity
55365;DHT22;41245;45.384;20.390;2023-06-01T01:00:09;461.00;128.00
55365;DHT22;41245;45.384;20.390;2023-06-01T01:02:36;460.80;128.00
55365;DHT22;41245;45.384;20.390;2023-06-01T01:05:08;461.10;128.00
55365;DHT22;41245;45.384;20.390;2023-06-01T01:08:17;436.10;128.00
55365;DHT22;41245;45.384;20.390;2023-06-01T01:11:09;436.10;128.00
55365;DHT22;41245;45.384;20.390;2023-06-01T01:13:48;436.10;128.00
55365;DHT22;41245;45.384;20.390;2023-06-01T01:16:39;461.00;128.00
55365;DHT22;41245;45.384;20.390;2023-06-01T01:25:02;460.80;128.00
55365;DHT22;41245;45.384;20.390;2023-06-01T01:28:08;436.10;128.00
55365;DHT22;41245;45.384;20.390;2023-06-01T01:30:37;436.10;128.00
55365;DHT22;41245;45.384;20.390;2023-06-01T01:33:03;436.10;128.00
55365;DHT22;41245;45.384;20.390;2023-06-01T01:35:30;436.00;128.00
55365;DHT22;41245;45.384;20.390;2023-06-01T01:37:57;436.00;128.00
55365;DHT22;41245;45.384;20.390;2023-06-01T01:40:23;435.90;128.00
55365;DHT22;41245;45.384;20.390;2023-06-01T01:42:50;436.00;128.00
55365;DHT22;41245;45.384;20.390;2023-06-01T01:45:17;436.10;128.00
55365;DHT22;41245;45.384;20.390;2023-06-01T01:50:15;436.00;128.00
55365;DHT22;41245;45.384;20.390;2023-06-01T01:52:46;435.90;128.00
55365;DHT22;41245;45.384;20.390;2023-06-01T01:55:14;435.90;128.00
55365;DHT22;41245;45.384;20.390;2023-06-01T01:57:41;435.90;128.00
55365;DHT22;41245;45.384;20.390;2023-06-01T02:00:08;435.90;128.00
55365;DHT22;41245;45.384;20.390;2023-06-01T02:02:37;435.90;128.00
55365;DHT22;41245;45.384;20.390;2023-06-01T02:05:03;435.90;128.00
55365;DHT22;41245;45.384;20.390;2023-06-01T02:07:28;435.90;128.00
55365;DHT22;41245;45.384;20.390;2023-06-01T02:09:54;436.00;128.00
55365;DHT22;41245;45.384;20.390;2023-06-01T02:12:20;436.00;128.00
55365;DHT22;41245;45.384;20.390;2023-06-01T02:14:45;436.00;128.00
55365;DHT22;41245;45.384;20.390;2023-06-01T02:17:11;436.00;128.00
55365;DHT22;41245;45.384;20.390;2023-06-01T02:19:41;436.10;128.00
55365;DHT22;41245;45.384;20.390;2023-06-01T02:22:07;436.00;128.00
55365;DHT22;41245;45.384;20.390;2023-06-01T02:24:33;436.10;128.00
55365;DHT22;41245;45.384;20.390;2023-06-01T02:26:58;461.10;128.00
55365;DHT22;41245;45.384;20.390;2023-06-01T02:29:24;436.00;128.00
55365;DHT22;41245;45.384;20.390;2023-06-01T02:31:50;436.00;128.00
55365;DHT22;41245;45.384;20.390;2023-06-01T02:34:17;436.10;128.00
55365;DHT22;41245;45.384;20.390;2023-06-01T02:36:42;436.10;128.00
55365;DHT22;41245;45.384;20.390;2023-06-01T02:39:08;436.10;128.00
55365;DHT22;41245;45.384;20.390;2023-06-01T02:41:34;436.10;128.00
55365;DHT22;41245;45.384;20.390;2023-06-01T02:44:00;436.10;128.00
55365;DHT22;41245;45.384;20.390;2023-06-01T02:46:26;436.00;128.00
55365;DHT22;41245;45.384;20.390;2023-06-01T02:48:51;436.10;128.00
55365;DHT22;41245;45.384;20.390;2023-06-01T02:51:18;461.20;128.00
55365;DHT22;41245;45.384;20.390;2023-06-01T02:53:44;436.10;128.00
55365;DHT22;41245;45.384;20.390;2023-06-01T02:56:12;460.80;128.00
55365;DHT22;41245;45.384;20.390;2023-06-01T02:58:38;460.80;128.00
55365;DHT22;41245;45.384;20.390;2023-06-01T03:01:03;460.80;128.00
55365;DHT22;41245;45.384;20.390;2023-06-01T03:03:29;460.90;128.00
55365;DHT22;41245;45.384;20.390;2023-06-01T03:05:56;460.90;128.00
55365;DHT22;41245;45.384;20.390;2023-06-01T03:08:22;460.80;128.00
55365;DHT22;41245;45.384;20.390;2023-06-01T03:10:50;460.90;128.00
55365;DHT22;41245;45.384;20.390;2023-06-01T03:13:16;461.00;128.00
55365;DHT22;41245;45.384;20.390;2023-06-01T03:15:41;460.90;128.00
55365;DHT22;41245;45.384;20.390;2023-06-01T03:18:07;460.90;128.00
55365;DHT22;41245;45.384;20.390;2023-06-01T03:20:34;461.00;128.00
55365;DHT22;41245;45.384;20.390;2023-06-01T03:23:00;461.10;128.00
55365;DHT22;41245;45.384;20.390;2023-06-01T03:25:26;461.10;128.00
55365;DHT22;41245;45.384;20.390;2023-06-01T03:27:52;461.10;128.00
55365;DHT22;41245;45.384;20.390;2023-06-01T03:30:18;461.10;128.00
55365;DHT22;41245;45.384;20.390;2023-06-01T03:32:44;461.20;128.00
55365;DHT22;41245;45.384;20.390;2023-06-01T03:35:11;461.20;128.00
55365;DHT22;41245;45.384;20.390;2023-06-01T03:37:39;461.30;128.00
55365;DHT22;41245;45.384;20.390;2023-06-01T03:40:07;461.40;128.00
55365;DHT22;41245;45.384;20.390;2023-06-01T03:42:41;461.50;128.00
55365;DHT22;41245;45.384;20.390;2023-06-01T03:45:07;486.40;128.00
55365;DHT22;41245;45.384;20.390;2023-06-01T03:47:33;486.60;128.00
55365;DHT22;41245;45.384;20.390;2023-06-01T03:50:00;486.90;128.00
55365;DHT22;41245;45.384;20.390;2023-06-01T03:52:27;487.10;128.00
55365;DHT22;41245;45.384;20.390;2023-06-01T04:19:21;768.10;332.80
55365;DHT22;41245;45.384;20.390;2023-06-01T04:21:47;768.20;409.60
55365;DHT22;41245;45.384;20.390;2023-06-01T04:26:39;794.10;1075.20
55365;DHT22;41245;45.384;20.390;2023-06-01T04:29:05;819.20;1100.80
55365;DHT22;41245;45.384;20.390;2023-06-01T04:31:31;819.70;1152.00
55365;DHT22;41245;45.384;20.390;2023-06-01T04:33:58;844.80;1228.80
55365;DHT22;41245;45.384;20.390;2023-06-01T04:36:27;820.10;1228.80
55365;DHT22;41245;45.384;20.390;2023-06-01T04:38:54;819.80;1177.60
55365;DHT22;41245;45.384;20.390;2023-06-01T04:41:21;794.40;1100.80
55365;DHT22;41245;45.384;20.390;2023-06-01T04:43:53;794.50;1024.00
55365;DHT22;41245;45.384;20.390;2023-06-01T04:46:23;819.20;1024.00
55365;DHT22;41245;45.384;20.390;2023-06-01T04:48:50;794.40;1126.40
55365;DHT22;41245;45.384;20.390;2023-06-01T04:51:21;794.10;1049.60
55365;DHT22;41245;45.384;20.390;2023-06-01T04:53:48;793.90;1049.60
55365;DHT22;41245;45.384;20.390;2023-06-01T04:56:19;768.80;1049.60
55365;DHT22;41245;45.384;20.390;2023-06-01T04:58:48;768.90;1024.00
55365;DHT22;41245;45.384;20.390;2023-06-01T05:01:14;768.80;1024.00
55365;DHT22;41245;45.384;20.390;2023-06-01T05:03:45;768.20;819.20
55365;DHT22;41245;45.384;20.390;2023-06-01T05:06:12;743.20;614.40
55365;DHT22;41245;45.384;20.390;2023-06-01T05:08:39;768.10;793.60
55365;DHT22;41245;45.384;20.390;2023-06-01T05:11:06;768.60;896.00
55365;DHT22;41245;45.384;20.390;2023-06-01T05:13:34;793.80;1075.20
55365;DHT22;41245;45.384;20.390;2023-06-01T05:16:01;793.80;1075.20
55365;DHT22;41245;45.384;20.390;2023-06-01T05:18:26;794.40;1100.80
55365;DHT22;41245;45.384;20.390;2023-06-01T05:20:52;819.20;1152.00
55365;DHT22;41245;45.384;20.390;2023-06-01T05:23:18;794.50;1152.00
55365;DHT22;41245;45.384;20.390;2023-06-01T05:25:43;819.50;1203.20
55365;DHT22;41245;45.384;20.390;2023-06-01T05:28:09;845.10;1254.40
55365;DHT22;41245;45.384;20.390;2023-06-01T05:30:35;870.40;1331.20
55365;DHT22;41245;45.384;20.390;2023-06-01T05:33:01;896.00;1689.60
55365;DHT22;41245;45.384;20.390;2023-06-01T05:35:26;921.70;1945.60
55365;DHT22;41245;45.384;20.390;2023-06-01T05:37:52;922.30;1996.80
55365;DHT22;41245;45.384;20.390;2023-06-01T05:40:19;947.40;2099.20
55365;DHT22;41245;45.384;20.390;2023-06-01T05:42:44;947.30;1996.80
55365;DHT22;41245;45.384;20.390;2023-06-01T05:45:10;947.50;2048.00
55365;DHT22;41245;45.384;20.390;2023-06-01T05:47:36;896.60;1792.00
55365;DHT22;41245;45.384;20.390;2023-06-01T05:50:01;896.30;1740.80
55365;DHT22;41245;45.384;20.390;2023-06-01T05:52:27;896.90;1843.20
55365;DHT22;41245;45.384;20.390;2023-06-01T05:54:53;922.50;2048.00
55365;DHT22;41245;45.384;20.390;2023-06-01T05:57:19;973.60;2380.80
55365;DHT22;41245;45.384;20.390;2023-06-01T05:59:46;999.00;2432.00
55365;DHT22;41245;45.384;20.390;2023-06-01T06:02:13;1024.50;2432.00
55365;DHT22;41245;45.384;20.390;2023-06-01T06:04:39;998.90;2432.00
55365;DHT22;41245;45.384;20.390;2023-06-01T06:07:05;1049.70;2432.00
55365;DHT22;41245;45.384;20.390;2023-06-01T06:09:31;1050.20;2432.00
55365;DHT22;41245;45.384;20.390;2023-06-01T06:11:57;1049.60;2432.00
55365;DHT22;41245;45.384;20.390;2023-06-01T06:14:23;998.40;2432.00
55365;DHT22;41245;45.384;20.390;2023-06-01T06:19:15;896.60;1817.60
55365;DHT22;41245;45.384;20.390;2023-06-01T06:21:41;896.70;1894.40
55365;DHT22;41245;45.384;20.390;2023-06-01T06:24:08;871.30;1843.20
55365;DHT22;41245;45.384;20.390;2023-06-01T06:26:34;870.40;1664.00
55365;DHT22;41245;45.384;20.390;2023-06-01T06:28:59;870.50;1740.80
55365;DHT22;41245;45.384;20.390;2023-06-01T06:31:26;845.10;1638.40
55365;DHT22;41245;45.384;20.390;2023-06-01T06:46:03;793.90;1305.60
55365;DHT22;41245;45.384;20.390;2023-06-01T06:48:29;793.70;1331.20
55365;DHT22;41245;45.384;20.390;2023-06-01T06:50:55;794.00;1382.40
55365;DHT22;41245;45.384;20.390;2023-06-01T06:53:21;794.00;1433.60
55365;DHT22;41245;45.384;20.390;2023-06-01T06:55:47;793.90;1433.60
55365;DHT22;41245;45.384;20.390;2023-06-01T06:58:13;794.00;1382.40
55365;DHT22;41245;45.384;20.390;2023-06-01T07:00:40;794.00;1356.80
55365;DHT22;41245;45.384;20.390;2023-06-01T07:03:06;794.10;1356.80
55365;DHT22;41245;45.384;20.390;2023-06-01T07:05:32;794.00;1331.20
55365;DHT22;41245;45.384;20.390;2023-06-01T07:07:58;793.80;1382.40
55365;DHT22;41245;45.384;20.390;2023-06-01T07:10:24;793.90;1382.40
55365;DHT22;41245;45.384;20.390;2023-06-01T07:12:51;793.80;1382.40
55365;DHT22;41245;45.384;20.390;2023-06-01T07:15:17;793.80;1356.80
55365;DHT22;41245;45.384;20.390;2023-06-01T07:17:43;793.90;1382.40
55365;DHT22;41245;45.384;20.390;2023-06-01T07:20:09;793.60;1382.40
55365;DHT22;41245;45.384;20.390;2023-06-01T07:22:37;793.90;1433.60
55365;DHT22;41245;45.384;20.390;2023-06-01T07:25:03;794.00;1331.20
55365;DHT22;41245;45.384;20.390;2023-06-01T07:27:29;793.90;1305.60
55365;DHT22;41245;45.384;20.390;2023-06-01T07:29:55;794.10;1331.20
55365;DHT22;41245;45.384;20.390;2023-06-01T07:32:24;794.10;1459.20
55365;DHT22;41245;45.384;20.390;2023-06-01T07:34:51;793.90;1433.60
55365;DHT22;41245;45.384;20.390;2023-06-01T07:37:17;793.90;1433.60
55365;DHT22;41245;45.384;20.390;2023-06-01T07:39:48;768.90;1305.60
55365;DHT22;41245;45.384;20.390;2023-06-01T07:42:14;768.90;1356.80
55365;DHT22;41245;45.384;20.390;2023-06-01T07:44:40;768.80;1331.20
55365;DHT22;41245;45.384;20.390;2023-06-01T07:47:06;793.60;1331.20
55365;DHT22;41245;45.384;20.390;2023-06-01T07:49:32;768.80;1228.80
55365;DHT22;41245;45.384;20.390;2023-06-01T07:52:01;768.90;1331.20
55365;DHT22;41245;45.384;20.390;2023-06-01T07:54:27;768.50;1228.80
55365;DHT22;41245;45.384;20.390;2023-06-01T07:56:52;768.60;1228.80
55365;DHT22;41245;45.384;20.390;2023-06-01T07:59:19;793.60;1433.60
55365;DHT22;41245;45.384;20.390;2023-06-01T08:01:48;794.10;1331.20
55365;DHT22;41245;45.384;20.390;2023-06-01T08:04:14;768.90;1254.40
55365;DHT22;41245;45.384;20.390;2023-06-01T08:06:40;768.90;1331.20
55365;DHT22;41245;45.384;20.390;2023-06-01T08:09:07;768.80;947.20
55365;DHT22;41245;45.384;20.390;2023-06-01T08:11:32;793.90;1100.80
55365;DHT22;41245;45.384;20.390;2023-06-01T08:13:59;768.50;1100.80
55365;DHT22;41245;45.384;20.390;2023-06-01T08:16:29;768.50;998.40
55365;DHT22;41245;45.384;20.390;2023-06-01T08:18:55;768.50;1228.80
55365;DHT22;41245;45.384;20.390;2023-06-01T08:21:23;768.80;1305.60
55365;DHT22;41245;45.384;20.390;2023-06-01T08:23:51;793.60;1331.20
55365;DHT22;41245;45.384;20.390;2023-06-01T08:26:18;768.80;1331.20
55365;DHT22;41245;45.384;20.390;2023-06-01T08:28:44;768.90;1356.80
55365;DHT22;41245;45.384;20.390;2023-06-01T08:31:20;768.20;1177.60
55365;DHT22;41245;45.384;20.390;2023-06-01T08:33:47;768.30;1049.60
55365;DHT22;41245;45.384;20.390;2023-06-01T08:36:13;768.80;1280.00
55365;DHT22;41245;45.384;20.390;2023-06-01T08:38:40;743.10;1152.00
55365;DHT22;41245;45.384;20.390;2023-06-01T08:41:33;743.10;1228.80
55365;DHT22;41245;45.384;20.390;2023-06-01T08:44:03;742.80;1152.00
55365;DHT22;41245;45.384;20.390;2023-06-01T08:46:31;742.70;1177.60
55365;DHT22;41245;45.384;20.390;2023-06-01T08:48:58;717.60;1075.20
55365;DHT22;41245;45.384;20.390;2023-06-01T08:51:24;717.30;1049.60
55365;DHT22;41245;45.384;20.390;2023-06-01T08:53:53;717.10;1024.00
55365;DHT22;41245;45.384;20.390;2023-06-01T08:56:19;716.80;819.20
55365;DHT22;41245;45.384;20.390;2023-06-01T08:58:47;716.90;768.00
55365;DHT22;41245;45.384;20.390;2023-06-01T09:01:20;717.10;998.40
55365;DHT22;41245;45.384;20.390;2023-06-01T09:03:51;716.90;1024.00
55365;DHT22;41245;45.384;20.390;2023-06-01T09:06:17;717.20;1049.60
55365;DHT22;41245;45.384;20.390;2023-06-01T09:08:44;717.50;896.00
55365;DHT22;41245;45.384;20.390;2023-06-01T09:11:10;717.60;1049.60
55365;DHT22;41245;45.384;20.390;2023-06-01T09:13:37;717.60;1024.00
55365;DHT22;41245;45.384;20.390;2023-06-01T09:16:04;742.40;1152.00
55365;DHT22;41245;45.384;20.390;2023-06-01T09:18:30;717.50;1024.00
55365;DHT22;41245;45.384;20.390;2023-06-01T09:21:13;742.40;1075.20
55365;DHT22;41245;45.384;20.390;2023-06-01T09:23:39;717.60;793.60
55365;DHT22;41245;45.384;20.390;2023-06-01T09:26:11;742.40;972.80
55365;DHT22;41245;45.384;20.390;2023-06-01T09:31:39;742.40;1049.60
55365;DHT22;41245;45.384;20.390;2023-06-01T09:34:05;717.60;1075.20
55365;DHT22;41245;45.384;20.390;2023-06-01T09:36:32;742.50;1049.60
55365;DHT22;41245;45.384;20.390;2023-06-01T09:41:35;742.50;1152.00
55365;DHT22;41245;45.384;20.390;2023-06-01T09:44:08;742.40;1075.20
55365;DHT22;41245;45.384;20.390;2023-06-01T09:46:49;742.50;1100.80
55365;DHT22;41245;45.384;20.390;2023-06-01T09:49:22;742.70;1152.00
55365;DHT22;41245;45.384;20.390;2023-06-01T09:51:48;742.90;972.80
55365;DHT22;41245;45.384;20.390;2023-06-01T09:54:27;743.00;1126.40
55365;DHT22;41245;45.384;20.390;2023-06-01T09:56:54;768.00;1049.60
55365;DHT22;41245;45.384;20.390;2023-06-01T09:59:21;743.30;1280.00
55365;DHT22;41245;45.384;20.390;2023-06-01T10:01:55;768.00;1024.00
55365;DHT22;41245;45.384;20.390;2023-06-01T10:04:26;768.00;1305.60
55365;DHT22;41245;45.384;20.390;2023-06-01T10:06:54;743.20;998.40
55365;DHT22;41245;45.384;20.390;2023-06-01T10:09:22;743.30;1254.40
55365;DHT22;41245;45.384;20.390;2023-06-01T10:11:50;743.30;1024.00
55365;DHT22;41245;45.384;20.390;2023-06-01T10:14:16;768.00;1254.40
55365;DHT22;41245;45.384;20.390;2023-06-01T10:16:43;768.10;1177.60
55365;DHT22;41245;45.384;20.390;2023-06-01T10:19:12;768.00;1126.40
55365;DHT22;41245;45.384;20.390;2023-06-01T10:21:38;743.30;1228.80
55365;DHT22;41245;45.384;20.390;2023-06-01T10:24:08;742.90;1177.60
55365;DHT22;41245;45.384;20.390;2023-06-01T10:29:28;742.40;1100.80
55365;DHT22;41245;45.384;20.390;2023-06-01T10:31:54;742.60;1100.80
55365;DHT22;41245;45.384;20.390;2023-06-01T10:34:44;742.50;1100.80
55365;DHT22;41245;45.384;20.390;2023-06-01T10:37:10;742.50;1075.20
55365;DHT22;41245;45.384;20.390;2023-06-01T10:39:36;742.80;1075.20
55365;DHT22;41245;45.384;20.390;2023-06-01T10:52:30;743.00;1152.00
55365;DHT22;41245;45.384;20.390;2023-06-01T10:57:45;743.20;1152.00
55365;DHT22;41245;45.384;20.390;2023-06-01T11:00:24;768.00;1177.60
55365;DHT22;41245;45.384;20.390;2023-06-01T11:03:03;768.10;1228.80
55365;DHT22;41245;45.384;20.390;2023-06-01T11:08:08;768.10;921.60
55365;DHT22;41245;45.384;20.390;2023-06-01T11:10:57;768.00;1152.00
55365;DHT22;41245;45.384;20.390;2023-06-01T11:13:37;742.90;972.80
55365;DHT22;41245;45.384;20.390;2023-06-01T11:21:20;742.50;972.80
55365;DHT22;41245;45.384;20.390;2023-06-01T11:23:47;742.50;1177.60
55365;DHT22;41245;45.384;20.390;2023-06-01T11:26:15;742.70;844.80
55365;DHT22;41245;45.384;20.390;2023-06-01T11:28:45;742.90;870.40
55365;DHT22;41245;45.384;20.390;2023-06-01T11:31:13;743.20;1203.20
55365;DHT22;41245;45.384;20.390;2023-06-01T11:33:40;768.00;1203.20
55365;DHT22;41245;45.384;20.390;2023-06-01T11:36:07;768.20;1254.40
55365;DHT22;41245;45.384;20.390;2023-06-01T11:38:38;768.10;1254.40
55365;DHT22;41245;45.384;20.390;2023-06-01T11:41:04;768.50;1305.60
55365;DHT22;41245;45.384;20.390;2023-06-01T11:43:31;768.60;1228.80
55365;DHT22;41245;45.384;20.390;2023-06-01T11:46:04;768.80;1152.00
55365;DHT22;41245;45.384;20.390;2023-06-01T11:48:30;768.80;947.20
55365;DHT22;41245;45.384;20.390;2023-06-01T11:50:57;768.80;1100.80
55365;DHT22;41245;45.384;20.390;2023-06-01T11:53:24;793.60;1152.00
55365;DHT22;41245;45.384;20.390;2023-06-01T11:55:52;793.90;1152.00
55365;DHT22;41245;45.384;20.390;2023-06-01T11:58:28;793.90;1254.40
55365;DHT22;41245;45.384;20.390;2023-06-01T12:00:55;793.60;1254.40
55365;DHT22;41245;45.384;20.390;2023-06-01T12:03:22;768.50;1075.20
55365;DHT22;41245;45.384;20.390;2023-06-01T12:05:50;768.40;1126.40
55365;DHT22;41245;45.384;20.390;2023-06-01T12:08:22;768.30;1177.60
55365;DHT22;41245;45.384;20.390;2023-06-01T12:10:50;768.30;947.20
55365;DHT22;41245;45.384;20.390;2023-06-01T12:13:17;768.50;947.20
55365;DHT22;41245;45.384;20.390;2023-06-01T12:15:44;768.60;1049.60
55365;DHT22;41245;45.384;20.390;2023-06-01T12:18:09;768.80;1203.20
55365;DHT22;41245;45.384;20.390;2023-06-01T12:20:43;768.80;1100.80
55365;DHT22;41245;45.384;20.390;2023-06-01T12:23:16;768.50;998.40
55365;DHT22;41245;45.384;20.390;2023-06-01T12:25:53;768.80;1075.20
55365;DHT22;41245;45.384;20.390;2023-06-01T12:28:23;768.80;1075.20
55365;DHT22;41245;45.384;20.390;2023-06-01T12:31:08;768.80;1024.00
55365;DHT22;41245;45.384;20.390;2023-06-01T12:33:36;768.60;1152.00
55365;DHT22;41245;45.384;20.390;2023-06-01T12:36:06;768.50;1049.60
55365;DHT22;41245;45.384;20.390;2023-06-01T12:38:36;768.40;998.40
55365;DHT22;41245;45.384;20.390;2023-06-01T12:41:10;768.80;921.60
55365;DHT22;41245;45.384;20.390;2023-06-01T12:43:37;743.00;870.40
55365;DHT22;41245;45.384;20.390;2023-06-01T12:46:04;742.70;1075.20
55365;DHT22;41245;45.384;20.390;2023-06-01T13:10:28;716.90;768.00
55365;DHT22;41245;45.384;20.390;2023-06-01T13:12:54;692.10;819.20
55365;DHT22;41245;45.384;20.390;2023-06-01T16:13:29;665.70;537.60
55365;DHT22;41245;45.384;20.390;2023-06-01T16:57:24;589.10;128.00
55365;DHT22;41245;45.384;20.390;2023-06-01T16:59:50;564.00;128.00
55365;DHT22;41245;45.384;20.390;2023-06-01T17:48:33;512.30;2380.80
55365;DHT22;41245;45.384;20.390;2023-06-01T17:50:59;512.10;2380.80
55365;DHT22;41245;45.384;20.390;2023-06-01T18:25:05;512.20;128.00
55365;DHT22;41245;45.384;20.390;2023-06-01T18:27:31;512.10;128.00
55365;DHT22;41245;45.384;20.390;2023-06-01T18:29:56;512.20;128.00
55365;DHT22;41245;45.384;20.390;2023-06-01T18:32:22;512.20;128.00
55365;DHT22;41245;45.384;20.390;2023-06-01T18:34:48;512.20;128.00
55365;DHT22;41245;45.384;20.390;2023-06-01T18:37:13;512.10;128.00
55365;DHT22;41245;45.384;20.390;2023-06-01T18:39:39;512.10;128.00
55365;DHT22;41245;45.384;20.390;2023-06-01T18:42:05;512.10;128.00
55365;DHT22;41245;45.384;20.390;2023-06-01T18:44:31;512.20;128.00
55365;DHT22;41245;45.384;20.390;2023-06-01T18:46:57;512.20;128.00
55365;DHT22;41245;45.384;20.390;2023-06-01T18:49:22;512.10;128.00
55365;DHT22;41245;45.384;20.390;2023-06-01T18:51:49;512.00;128.00
55365;DHT22;41245;45.384;20.390;2023-06-01T18:59:12;512.00;128.00
55365;DHT22;41245;45.384;20.390;2023-06-01T19:01:38;487.10;128.00
55365;DHT22;41245;45.384;20.390;2023-06-01T19:04:04;487.00;128.00
55365;DHT22;41245;45.384;20.390;2023-06-01T19:06:33;486.90;128.00
55365;DHT22;41245;45.384;20.390;2023-06-01T19:43:38;487.00;128.00
55365;DHT22;41245;45.384;20.390;2023-06-01T20:00:56;487.00;128.00
55365;DHT22;41245;45.384;20.390;2023-06-01T20:08:16;487.00;128.00
55365;DHT22;41245;45.384;20.390;2023-06-01T20:10:43;486.80;128.00
55365;DHT22;41245;45.384;20.390;2023-06-01T20:13:10;486.80;128.00
55365;DHT22;41245;45.384;20.390;2023-06-01T20:15:38;486.80;128.00
55365;DHT22;41245;45.384;20.390;2023-06-01T20:18:07;486.80;128.00
55365;DHT22;41245;45.384;20.390;2023-06-01T20:20:34;486.90;128.00
55365;DHT22;41245;45.384;20.390;2023-06-01T20:23:14;486.90;128.00
55365;DHT22;41245;45.384;20.390;2023-06-01T20:25:42;486.90;230.40
55365;DHT22;41245;45.384;20.390;2023-06-01T20:28:10;487.00;128.00
55365;DHT22;41245;45.384;20.390;2023-06-01T20:33:05;486.90;128.00
55365;DHT22;41245;45.384;20.390;2023-06-01T20:35:31;486.90;128.00
55365;DHT22;41245;45.384;20.390;2023-06-01T20:37:57;486.80;128.00
55365;DHT22;41245;45.384;20.390;2023-06-01T21:12:57;487.20;179.20
55365;DHT22;41245;45.384;20.390;2023-06-01T21:15:22;487.10;128.00
55365;DHT22;41245;45.384;20.390;2023-06-01T21:17:48;487.10;204.80
55365;DHT22;41245;45.384;20.390;2023-06-01T21:20:14;487.10;409.60
55365;DHT22;41245;45.384;20.390;2023-06-01T21:22:39;487.00;691.20
55365;DHT22;41245;45.384;20.390;2023-06-01T21:25:05;487.00;128.00
55365;DHT22;41245;45.384;20.390;2023-06-01T21:27:31;487.00;128.00
55365;DHT22;41245;45.384;20.390;2023-06-01T21:29:57;487.00;128.00
55365;DHT22;41245;45.384;20.390;2023-06-01T21:32:23;487.00;128.00
55365;DHT22;41245;45.384;20.390;2023-06-01T21:34:48;487.00;128.00
55365;DHT22;41245;45.384;20.390;2023-06-01T21:37:14;486.90;128.00
55365;DHT22;41245;45.384;20.390;2023-06-01T21:39:40;486.90;128.00
55365;DHT22;41245;45.384;20.390;2023-06-01T21:42:05;486.90;128.00
55365;DHT22;41245;45.384;20.390;2023-06-01T21:44:32;486.80;128.00
55365;DHT22;41245;45.384;20.390;2023-06-01T21:46:57;486.80;128.00
55365;DHT22;41245;45.384;20.390;2023-06-01T21:49:23;486.80;128.00
55365;DHT22;41245;45.384;20.390;2023-06-01T21:51:49;486.90;128.00
55365;DHT22;41245;45.384;20.390;2023-06-01T21:54:14;486.90;128.00
55365;DHT22;41245;45.384;20.390;2023-06-01T21:56:40;486.90;435.20
55365;DHT22;41245;45.384;20.390;2023-06-01T21:59:06;487.00;563.20
55365;DHT22;41245;45.384;20.390;2023-06-01T22:01:36;487.00;588.80
55365;DHT22;41245;45.384;20.390;2023-06-01T22:04:01;486.90;128.00
55365;DHT22;41245;45.384;20.390;2023-06-01T22:06:27;486.90;128.00
55365;DHT22;41245;45.384;20.390;2023-06-01T22:08:53;486.80;128.00
55365;DHT22;41245;45.384;20.390;2023-06-01T22:11:19;486.80;128.00
55365;DHT22;41245;45.384;20.390;2023-06-01T22:13:44;486.80;128.00
55365;DHT22;41245;45.384;20.390;2023-06-01T22:16:11;486.80;128.00
55365;DHT22;41245;45.384;20.390;2023-06-01T22:18:36;486.80;128.00
55365;DHT22;41245;45.384;20.390;2023-06-01T22:21:02;486.80;128.00
55365;DHT22;41245;45.384;20.390;2023-06-01T22:23:28;486.70;128.00
55365;DHT22;41245;45.384;20.390;2023-06-01T22:25:54;486.70;128.00
55365;DHT22;41245;45.384;20.390;2023-06-01T22:28:19;486.70;128.00
